sensor_id;sensor_type;location;lat;lon;timestamp;pressure;altitude;pressure_sealevel;temperature;humidity
69667;BME280;66534;52.370;4.832;2023-02-10T00:00:26;103525.38;;;3.71;100.00
69667;BME280;66534;52.370;4.832;2023-02-10T00:01:06;103527.78;;;3.63;100.00
69667;BME280;66534;52.370;4.832;2023-02-10T00:01:43;103517.53;;;3.68;100.00
69667;BME280;66534;52.370;4.832;2023-02-10T00:02:13;103298.09;;;2.48;100.00
69667;BME280;66534;52.370;4.832;2023-02-10T00:02:43;103521.47;;;3.85;100.00
69667;BME280;66534;52.370;4.832;2023-02-10T00:03:14;103522.09;;;3.77;100.00
69667;BME280;66534;52.370;4.832;2023-02-10T00:03:44;103524.75;;;3.80;100.00
69667;BME280;66534;52.370;4.832;2023-02-10T00:04:14;103528.16;;;3.77;100.00
69667;BME280;66534;52.370;4.832;2023-02-10T00:04:45;103526.44;;;3.78;100.00
69667;BME280;66534;52.370;4.832;2023-02-10T00:05:15;103525.63;;;3.80;100.00
69667;BME280;66534;52.370;4.832;2023-02-10T00:05:46;103522.28;;;3.84;100.00
69667;BME280;66534;52.370;4.832;2023-02-10T00:06:17;103544.94;;;3.90;100.00
69667;BME280;66534;52.370;4.832;2023-02-10T00:06:48;103521.47;;;3.85;100.00
69667;BME280;66534;52.370;4.832;2023-02-10T00:07:19;103520.63;;;3.86;100.00
69667;BME280;66534;52.370;4.832;2023-02-10T00:07:49;103528.31;;;3.83;100.00
69667;BME280;66534;52.370;4.832;2023-02-10T00:08:20;103523.84;;;3.78;100.00
69667;BME280;66534;52.370;4.832;2023-02-10T00:08:51;103526.47;;;3.79;100.00
69667;BME280;66534;52.370;4.832;2023-02-10T00:09:22;103516.22;;;3.84;100.00
69667;BME280;66534;52.370;4.832;2023-02-10T00:09:53;103516.94;;;3.78;100.00
69667;BME280;66534;52.370;4.832;2023-02-10T00:10:23;103522.84;;;3.72;100.00
69667;BME280;66534;52.370;4.832;2023-02-10T00:11:00;103524.41;;;3.66;100.00
69667;BME280;66534;52.370;4.832;2023-02-10T00:11:36;103520.84;;;3.62;100.00
69667;BME280;66534;52.370;4.832;2023-02-10T00:12:25;103557.00;;;3.56;100.00
69667;BME280;66534;52.370;4.832;2023-02-10T00:12:55;103528.63;;;3.62;100.00
69667;BME280;66534;52.370;4.832;2023-02-10T00:13:26;103529.28;;;3.55;100.00
69667;BME280;66534;52.370;4.832;2023-02-10T00:13:57;103523.97;;;3.50;100.00
69667;BME280;66534;52.370;4.832;2023-02-10T00:14:28;103531.81;;;3.52;100.00
69667;BME280;66534;52.370;4.832;2023-02-10T00:14:59;103527.44;;;3.51;100.00
69667;BME280;66534;52.370;4.832;2023-02-10T00:15:29;103515.28;;;3.48;100.00
69667;BME280;66534;52.370;4.832;2023-02-10T00:16:00;103520.69;;;3.56;100.00
69667;BME280;66534;52.370;4.832;2023-02-10T00:16:32;103524.91;;;3.53;100.00
69667;BME280;66534;52.370;4.832;2023-02-10T00:17:02;103518.03;;;3.55;100.00
69667;BME280;66534;52.370;4.832;2023-02-10T00:17:33;103528.28;;;3.50;100.00
69667;BME280;66534;52.370;4.832;2023-02-10T00:18:03;103525.66;;;3.48;100.00
69667;BME280;66534;52.370;4.832;2023-02-10T00:18:34;103522.13;;;3.46;100.00
69667;BME280;66534;52.370;4.832;2023-02-10T00:19:04;103522.94;;;3.44;100.00
69667;BME280;66534;52.370;4.832;2023-02-10T00:19:35;103522.09;;;3.45;100.00
69667;BME280;66534;52.370;4.832;2023-02-10T00:20:05;103522.09;;;3.45;100.00
69667;BME280;66534;52.370;4.832;2023-02-10T00:20:37;103522.84;;;3.41;100.00
69667;BME280;66534;52.370;4.832;2023-02-10T00:21:15;103520.25;;;3.41;100.00
69667;BME280;66534;52.370;4.832;2023-02-10T00:21:46;103518.72;;;3.47;100.00
69667;BME280;66534;52.370;4.832;2023-02-10T00:22:17;103530.88;;;3.50;100.00
69667;BME280;66534;52.370;4.832;2023-02-10T00:22:47;103521.25;;;3.46;100.00
69667;BME280;66534;52.370;4.832;2023-02-10T00:23:17;103527.16;;;3.40;100.00
69667;BME280;66534;52.370;4.832;2023-02-10T00:23:48;103521.34;;;3.49;100.00
69667;BME280;66534;52.370;4.832;2023-02-10T00:24:19;103525.47;;;3.42;100.00
69667;BME280;66534;52.370;4.832;2023-02-10T00:24:50;103528.91;;;3.41;100.00
69667;BME280;66534;52.370;4.832;2023-02-10T00:25:21;103529.75;;;3.40;100.00
69667;BME280;66534;52.370;4.832;2023-02-10T00:25:51;103528.91;;;3.41;100.00
69667;BME280;66534;52.370;4.832;2023-02-10T00:26:21;103533.19;;;3.39;100.00
69667;BME280;66534;52.370;4.832;2023-02-10T00:26:52;103528.03;;;3.41;100.00
69667;BME280;66534;52.370;4.832;2023-02-10T00:27:23;103527.38;;;3.48;100.00
69667;BME280;66534;52.370;4.832;2023-02-10T00:27:54;103531.38;;;3.37;100.00
69667;BME280;66534;52.370;4.832;2023-02-10T00:28:24;103528.06;;;3.42;100.00
69667;BME280;66534;52.370;4.832;2023-02-10T00:28:54;103524.44;;;3.36;100.00
69667;BME280;66534;52.370;4.832;2023-02-10T00:29:25;103523.56;;;3.35;100.00
69667;BME280;66534;52.370;4.832;2023-02-10T00:29:56;103520.34;;;3.44;100.00
69667;BME280;66534;52.370;4.832;2023-02-10T00:30:26;103516.00;;;3.43;100.00
69667;BME280;66534;52.370;4.832;2023-02-10T00:30:56;103515.66;;;3.31;100.00
69667;BME280;66534;52.370;4.832;2023-02-10T00:31:27;103522.81;;;3.39;100.00
69667;BME280;66534;52.370;4.832;2023-02-10T00:31:57;103520.84;;;3.31;100.00
69667;BME280;66534;52.370;4.832;2023-02-10T00:32:28;103518.19;;;3.29;100.00
69667;BME280;66534;52.370;4.832;2023-02-10T00:32:58;103525.06;;;3.27;100.00
69667;BME280;66534;52.370;4.832;2023-02-10T00:33:28;103520.84;;;3.31;100.00
69667;BME280;66534;52.370;4.832;2023-02-10T00:33:59;103520.75;;;3.28;100.00
69667;BME280;66534;52.370;4.832;2023-02-10T00:34:29;103526.81;;;3.28;100.00
69667;BME280;66534;52.370;4.832;2023-02-10T00:35:00;103520.00;;;3.32;100.00
69667;BME280;66534;52.370;4.832;2023-02-10T00:35:30;103523.56;;;3.35;100.00
69667;BME280;66534;52.370;4.832;2023-02-10T00:36:04;103518.53;;;3.41;100.00
69667;BME280;66534;52.370;4.832;2023-02-10T00:36:35;103520.13;;;3.36;100.00
69667;BME280;66534;52.370;4.832;2023-02-10T00:37:06;103524.59;;;3.42;100.00
69667;BME280;66534;52.370;4.832;2023-02-10T00:37:36;103526.69;;;3.55;100.00
69667;BME280;66534;52.370;4.832;2023-02-10T00:38:07;103524.69;;;3.45;100.00
69667;BME280;66534;52.370;4.832;2023-02-10T00:38:37;103530.59;;;3.39;100.00
69667;BME280;66534;52.370;4.832;2023-02-10T00:39:12;103527.59;;;3.56;100.00
69667;BME280;66534;52.370;4.832;2023-02-10T00:39:44;103525.69;;;3.50;100.00
69667;BME280;66534;52.370;4.832;2023-02-10T00:40:16;103526.53;;;3.49;100.00
69667;BME280;66534;52.370;4.832;2023-02-10T00:40:46;103528.41;;;3.55;100.00
69667;BME280;66534;52.370;4.832;2023-02-10T00:41:18;103537.69;;;3.46;100.00
69667;BME280;66534;52.370;4.832;2023-02-10T00:41:49;103534.91;;;3.39;100.00
69667;BME280;66534;52.370;4.832;2023-02-10T00:42:20;103534.09;;;3.41;100.00
69667;BME280;66534;52.370;4.832;2023-02-10T00:42:50;103538.38;;;3.71;100.00
69667;BME280;66534;52.370;4.832;2023-02-10T00:43:21;103527.13;;;3.72;100.00
69667;BME280;66534;52.370;4.832;2023-02-10T00:43:51;103528.69;;;3.64;100.00
69667;BME280;66534;52.370;4.832;2023-02-10T00:44:23;103523.97;;;3.50;100.00
69667;BME280;66534;52.370;4.832;2023-02-10T00:44:53;103530.03;;;3.51;100.00
69667;BME280;66534;52.370;4.832;2023-02-10T00:45:25;103528.41;;;3.55;100.00
69667;BME280;66534;52.370;4.832;2023-02-10T00:45:55;103532.19;;;3.66;100.00
69667;BME280;66534;52.370;4.832;2023-02-10T00:46:25;103531.41;;;3.68;100.00
69667;BME280;66534;52.370;4.832;2023-02-10T00:46:56;103531.19;;;3.61;100.00
69667;BME280;66534;52.370;4.832;2023-02-10T00:47:26;103530.72;;;3.44;100.00
69667;BME280;66534;52.370;4.832;2023-02-10T00:47:57;103531.47;;;3.40;100.00
69667;BME280;66534;52.370;4.832;2023-02-10T00:48:27;103531.38;;;3.37;100.00
69667;BME280;66534;52.370;4.832;2023-02-10T00:48:57;103530.41;;;3.33;100.00
69667;BME280;66534;52.370;4.832;2023-02-10T00:49:28;103528.81;;;3.38;100.00
69667;BME280;66534;52.370;4.832;2023-02-10T00:49:58;103526.41;;;3.44;100.00
69667;BME280;66534;52.370;4.832;2023-02-10T00:50:29;103528.53;;;3.59;100.00
69667;BME280;66534;52.370;4.832;2023-02-10T00:50:59;103526.56;;;3.50;100.00
69667;BME280;66534;52.370;4.832;2023-02-10T00:51:29;103532.59;;;3.49;100.00
69667;BME280;66534;52.370;4.832;2023-02-10T00:52:00;103530.13;;;3.54;100.00
69667;BME280;66534;52.370;4.832;2023-02-10T00:52:31;103532.72;;;3.54;100.00
69667;BME280;66534;52.370;4.832;2023-02-10T00:53:01;103523.34;;;3.59;100.00
69667;BME280;66534;52.370;4.832;2023-02-10T00:53:31;103520.59;;;3.53;100.00
69667;BME280;66534;52.370;4.832;2023-02-10T00:54:02;103528.38;;;3.53;100.00
69667;BME280;66534;52.370;4.832;2023-02-10T00:54:33;103529.72;;;3.39;100.00
69667;BME280;66534;52.370;4.832;2023-02-10T00:55:03;103527.31;;;3.46;100.00
69667;BME280;66534;52.370;4.832;2023-02-10T00:55:34;103528.59;;;3.61;100.00
69667;BME280;66534;52.370;4.832;2023-02-10T00:56:04;103529.00;;;3.44;100.00
69667;BME280;66534;52.370;4.832;2023-02-10T00:56:35;103532.78;;;3.25;100.00
69667;BME280;66534;52.370;4.832;2023-02-10T00:57:06;103538.56;;;3.17;100.00
69667;BME280;66534;52.370;4.832;2023-02-10T00:57:36;103534.94;;;3.10;100.00
69667;BME280;66534;52.370;4.832;2023-02-10T00:58:06;103539.19;;;3.08;100.00
69667;BME280;66534;52.370;4.832;2023-02-10T00:58:38;103543.09;;;3.22;100.00
69667;BME280;66534;52.370;4.832;2023-02-10T00:59:09;103541.91;;;3.13;100.00
69667;BME280;66534;52.370;4.832;2023-02-10T00:59:42;103540.25;;;3.15;100.00
69667;BME280;66534;52.370;4.832;2023-02-10T01:00:13;103545.38;;;3.13;100.00
69667;BME280;66534;52.370;4.832;2023-02-10T01:00:44;103541.03;;;3.12;100.00
69667;BME280;66534;52.370;4.832;2023-02-10T01:01:14;103547.16;;;3.14;100.00
69667;BME280;66534;52.370;4.832;2023-02-10T01:01:44;103547.69;;;3.33;100.00
69667;BME280;66534;52.370;4.832;2023-02-10T01:02:15;103543.06;;;3.53;100.00
69667;BME280;66534;52.370;4.832;2023-02-10T01:02:46;103540.50;;;3.54;100.00
69667;BME280;66534;52.370;4.832;2023-02-10T01:03:16;103544.31;;;3.67;100.00
69667;BME280;66534;52.370;4.832;2023-02-10T01:03:47;103548.47;;;3.60;100.00
69667;BME280;66534;52.370;4.832;2023-02-10T01:04:18;103545.59;;;3.51;100.00
69667;BME280;66534;52.370;4.832;2023-02-10T01:04:48;103543.81;;;3.48;100.00
69667;BME280;66534;52.370;4.832;2023-02-10T01:05:18;103544.69;;;3.49;100.00
69667;BME280;66534;52.370;4.832;2023-02-10T01:05:49;103543.56;;;3.39;100.00
69667;BME280;66534;52.370;4.832;2023-02-10T01:06:19;103539.66;;;3.55;100.00
69667;BME280;66534;52.370;4.832;2023-02-10T01:06:50;103536.47;;;3.64;100.00
69667;BME280;66534;52.370;4.832;2023-02-10T01:07:20;103540.00;;;3.36;100.00
69667;BME280;66534;52.370;4.832;2023-02-10T01:07:50;103537.31;;;3.33;100.00
69667;BME280;66534;52.370;4.832;2023-02-10T01:08:22;103536.09;;;3.21;100.00
69667;BME280;66534;52.370;4.832;2023-02-10T01:08:53;103534.50;;;3.25;100.00
69667;BME280;66534;52.370;4.832;2023-02-10T01:09:23;103536.91;;;3.19;100.00
69667;BME280;66534;52.370;4.832;2023-02-10T01:09:54;103534.69;;;3.31;100.00
69667;BME280;66534;52.370;4.832;2023-02-10T01:10:25;103533.94;;;3.35;100.00
69667;BME280;66534;52.370;4.832;2023-02-10T01:10:59;103534.56;;;3.27;100.00
69667;BME280;66534;52.370;4.832;2023-02-10T01:11:29;103529.16;;;3.20;100.00
69667;BME280;66534;52.370;4.832;2023-02-10T01:12:00;103539.25;;;3.10;100.00
69667;BME280;66534;52.370;4.832;2023-02-10T01:12:30;103531.13;;;2.99;100.00
69667;BME280;66534;52.370;4.832;2023-02-10T01:13:01;103533.47;;;2.90;100.00
69667;BME280;66534;52.370;4.832;2023-02-10T01:13:33;103535.09;;;2.88;100.00
69667;BME280;66534;52.370;4.832;2023-02-10T01:14:04;103527.31;;;2.88;100.00
69667;BME280;66534;52.370;4.832;2023-02-10T01:14:35;103536.06;;;2.90;100.00
69667;BME280;66534;52.370;4.832;2023-02-10T01:15:05;103542.63;;;3.07;100.00
69667;BME280;66534;52.370;4.832;2023-02-10T01:15:40;103538.91;;;3.28;100.00
69667;BME280;66534;52.370;4.832;2023-02-10T01:16:15;103541.50;;;3.28;100.00
69667;BME280;66534;52.370;4.832;2023-02-10T01:16:46;103541.75;;;3.07;100.00
69667;BME280;66534;52.370;4.832;2023-02-10T01:17:17;103539.59;;;3.22;100.00
69667;BME280;66534;52.370;4.832;2023-02-10T01:17:47;103546.28;;;3.14;100.00
69667;BME280;66534;52.370;4.832;2023-02-10T01:18:17;103538.31;;;3.08;100.00
69667;BME280;66534;52.370;4.832;2023-02-10T01:18:48;103546.72;;;3.00;100.00
69667;BME280;66534;52.370;4.832;2023-02-10T01:19:18;103542.28;;;2.96;100.00
69667;BME280;66534;52.370;4.832;2023-02-10T01:19:49;103552.66;;;2.96;100.00
69667;BME280;66534;52.370;4.832;2023-02-10T01:20:21;103547.31;;;2.92;100.00
69667;BME280;66534;52.370;4.832;2023-02-10T01:20:52;103556.88;;;2.93;100.00
69667;BME280;66534;52.370;4.832;2023-02-10T01:21:22;103557.66;;;3.19;100.00
69667;BME280;66534;52.370;4.832;2023-02-10T01:21:53;103555.75;;;3.13;100.00
69667;BME280;66534;52.370;4.832;2023-02-10T01:22:23;103557.09;;;3.00;100.00
69667;BME280;66534;52.370;4.832;2023-02-10T01:22:53;103561.28;;;2.95;100.00
69667;BME280;66534;52.370;4.832;2023-02-10T01:23:24;103559.69;;;3.00;100.00
69667;BME280;66534;52.370;4.832;2023-02-10T01:23:54;103554.44;;;2.97;100.00
69667;BME280;66534;52.370;4.832;2023-02-10T01:24:25;103558.88;;;3.02;100.00
69667;BME280;66534;52.370;4.832;2023-02-10T01:24:55;103552.59;;;2.93;100.00
69667;BME280;66534;52.370;4.832;2023-02-10T01:25:26;103555.94;;;2.91;100.00
69667;BME280;66534;52.370;4.832;2023-02-10T01:25:58;103566.56;;;2.98;100.00
69667;BME280;66534;52.370;4.832;2023-02-10T01:26:29;103558.94;;;3.05;100.00
69667;BME280;66534;52.370;4.832;2023-02-10T01:26:59;103562.13;;;2.94;100.00
69667;BME280;66534;52.370;4.832;2023-02-10T01:27:30;103561.03;;;2.88;100.00
69667;BME280;66534;52.370;4.832;2023-02-10T01:28:00;103556.78;;;2.90;100.00
69667;BME280;66534;52.370;4.832;2023-02-10T01:28:31;103567.94;;;2.87;100.00
69667;BME280;66534;52.370;4.832;2023-02-10T01:29:01;103555.72;;;2.83;100.00
69667;BME280;66534;52.370;4.832;2023-02-10T01:29:32;103565.72;;;2.99;100.00
69667;BME280;66534;52.370;4.832;2023-02-10T01:30:03;103558.50;;;2.89;100.00
69667;BME280;66534;52.370;4.832;2023-02-10T01:30:34;103559.53;;;2.94;100.00
69667;BME280;66534;52.370;4.832;2023-02-10T01:31:06;103568.38;;;3.01;100.00
69667;BME280;66534;52.370;4.832;2023-02-10T01:31:37;103558.78;;;2.98;100.00
69667;BME280;66534;52.370;4.832;2023-02-10T01:32:07;103557.69;;;2.92;100.00
69667;BME280;66534;52.370;4.832;2023-02-10T01:32:38;103558.81;;;3.00;100.00
69667;BME280;66534;52.370;4.832;2023-02-10T01:33:08;103556.97;;;2.96;100.00
69667;BME280;66534;52.370;4.832;2023-02-10T01:33:39;103562.88;;;2.92;100.00
69667;BME280;66534;52.370;4.832;2023-02-10T01:34:10;103560.06;;;2.84;100.00
69667;BME280;66534;52.370;4.832;2023-02-10T01:34:41;103563.09;;;2.98;100.00
69667;BME280;66534;52.370;4.832;2023-02-10T01:35:12;103562.25;;;2.99;100.00
69667;BME280;66534;52.370;4.832;2023-02-10T01:35:42;103558.75;;;2.97;100.00
69667;BME280;66534;52.370;4.832;2023-02-10T01:36:14;103553.38;;;2.92;100.00
69667;BME280;66534;52.370;4.832;2023-02-10T01:36:46;103563.94;;;2.97;100.00
69667;BME280;66534;52.370;4.832;2023-02-10T01:37:16;103561.50;;;3.03;100.00
69667;BME280;66534;52.370;4.832;2023-02-10T01:37:46;103562.50;;;3.07;100.00
69667;BME280;66534;52.370;4.832;2023-02-10T01:38:17;103564.88;;;3.00;100.00
69667;BME280;66534;52.370;4.832;2023-02-10T01:38:48;103565.69;;;2.98;100.00
69667;BME280;66534;52.370;4.832;2023-02-10T01:39:19;103564.94;;;3.02;100.00
69667;BME280;66534;52.370;4.832;2023-02-10T01:39:49;103560.41;;;2.95;100.00
69667;BME280;66534;52.370;4.832;2023-02-10T01:40:20;103562.13;;;2.94;100.00
69667;BME280;66534;52.370;4.832;2023-02-10T01:40:51;103566.66;;;3.02;100.00
69667;BME280;66534;52.370;4.832;2023-02-10T01:41:22;103568.00;;;2.89;100.00
69667;BME280;66534;52.370;4.832;2023-02-10T01:41:54;103565.25;;;2.84;100.00
69667;BME280;66534;52.370;4.832;2023-02-10T01:42:24;103571.34;;;2.85;100.00
69667;BME280;66534;52.370;4.832;2023-02-10T01:42:55;103562.56;;;2.81;100.00
69667;BME280;66534;52.370;4.832;2023-02-10T01:43:25;103564.59;;;2.91;100.00
69667;BME280;66534;52.370;4.832;2023-02-10T01:45:24;103572.06;;;2.81;100.00
69667;BME280;66534;52.370;4.832;2023-02-10T01:45:58;103568.63;;;2.82;100.00
69667;BME280;66534;52.370;4.832;2023-02-10T01:46:30;103566.41;;;2.94;100.00
69667;BME280;66534;52.370;4.832;2023-02-10T01:47:01;103567.06;;;2.87;100.00
69667;BME280;66534;52.370;4.832;2023-02-10T01:47:32;103573.00;;;2.84;100.00
69667;BME280;66534;52.370;4.832;2023-02-10T01:48:02;103564.34;;;2.84;100.00
69667;BME280;66534;52.370;4.832;2023-02-10T01:48:34;103569.53;;;2.84;100.00
69667;BME280;66534;52.370;4.832;2023-02-10T01:49:05;103567.09;;;2.88;100.00
69667;BME280;66534;52.370;4.832;2023-02-10T01:49:41;103561.97;;;2.90;100.00
69667;BME280;66534;52.370;4.832;2023-02-10T01:50:17;103567.78;;;2.83;100.00
69667;BME280;66534;52.370;4.832;2023-02-10T01:51:08;103566.94;;;2.84;100.00
69667;BME280;66534;52.370;4.832;2023-02-10T01:51:41;103606.66;;;2.81;100.00
69667;BME280;66534;52.370;4.832;2023-02-10T01:52:16;103564.59;;;2.91;100.00
69667;BME280;66534;52.370;4.832;2023-02-10T01:52:50;103563.69;;;2.89;100.00
69667;BME280;66534;52.370;4.832;2023-02-10T01:53:23;103561.84;;;2.85;100.00
69667;BME280;66534;52.370;4.832;2023-02-10T01:53:54;103563.47;;;2.83;100.00
69667;BME280;66534;52.370;4.832;2023-02-10T01:54:30;103562.50;;;2.80;100.00
69667;BME280;66534;52.370;4.832;2023-02-10T01:55:06;103565.25;;;2.84;100.00
69667;BME280;66534;52.370;4.832;2023-02-10T01:55:39;103561.75;;;2.84;100.00
69667;BME280;66534;52.370;4.832;2023-02-10T01:56:12;103562.66;;;2.84;100.00
69667;BME280;66534;52.370;4.832;2023-02-10T01:56:45;103563.72;;;2.91;100.00
69667;BME280;66534;52.370;4.832;2023-02-10T01:57:17;103554.97;;;2.87;100.00
69667;BME280;66534;52.370;4.832;2023-02-10T01:57:48;103567.09;;;2.88;100.00
69667;BME280;66534;52.370;4.832;2023-02-10T01:58:25;103558.75;;;2.97;100.00
69667;BME280;66534;52.370;4.832;2023-02-10T01:58:59;103559.75;;;3.02;100.00
69667;BME280;66534;52.370;4.832;2023-02-10T01:59:30;103559.75;;;3.02;100.00
69667;BME280;66534;52.370;4.832;2023-02-10T02:00:05;103559.63;;;2.97;100.00
69667;BME280;66534;52.370;4.832;2023-02-10T02:00:36;103553.13;;;3.12;100.00
69667;BME280;66534;52.370;4.832;2023-02-10T02:01:07;103560.16;;;3.16;100.00
69667;BME280;66534;52.370;4.832;2023-02-10T02:01:37;103560.03;;;3.11;100.00
69667;BME280;66534;52.370;4.832;2023-02-10T02:02:08;103557.53;;;3.14;100.00
69667;BME280;66534;52.370;4.832;2023-02-10T02:02:41;103554.63;;;3.05;100.00
69667;BME280;66534;52.370;4.832;2023-02-10T02:03:13;103562.63;;;3.11;100.00
69667;BME280;66534;52.370;4.832;2023-02-10T02:03:44;103551.88;;;2.99;100.00
69667;BME280;66534;52.370;4.832;2023-02-10T02:04:15;103554.50;;;3.00;100.00
69667;BME280;66534;52.370;4.832;2023-02-10T02:05:22;103559.28;;;2.87;100.00
69667;BME280;66534;52.370;4.832;2023-02-10T02:05:53;103556.19;;;2.98;100.00
69667;BME280;66534;52.370;4.832;2023-02-10T02:06:23;103556.81;;;2.91;100.00
69667;BME280;66534;52.370;4.832;2023-02-10T02:06:53;103552.25;;;2.83;100.00
69667;BME280;66534;52.370;4.832;2023-02-10T02:07:25;103549.00;;;2.90;100.00
69667;BME280;66534;52.370;4.832;2023-02-10T02:07:59;103556.28;;;3.02;100.00
69667;BME280;66534;52.370;4.832;2023-02-10T02:08:43;103560.41;;;2.95;100.00
69667;BME280;66534;52.370;4.832;2023-02-10T02:09:13;103547.31;;;2.92;100.00
69667;BME280;66534;52.370;4.832;2023-02-10T02:09:44;103556.22;;;3.00;100.00
69667;BME280;66534;52.370;4.832;2023-02-10T02:10:16;103554.81;;;3.10;100.00
69667;BME280;66534;52.370;4.832;2023-02-10T02:10:52;103553.75;;;3.05;100.00
69667;BME280;66534;52.370;4.832;2023-02-10T02:12:15;103549.31;;;3.00;100.00
69667;BME280;66534;52.370;4.832;2023-02-10T02:12:52;103552.75;;;2.99;100.00
69667;BME280;66534;52.370;4.832;2023-02-10T02:15:37;103551.28;;;3.08;100.00
69667;BME280;66534;52.370;4.832;2023-02-10T02:16:27;103552.75;;;2.99;100.00
69667;BME280;66534;52.370;4.832;2023-02-10T02:19:16;103556.81;;;3.20;100.00
69667;BME280;66534;52.370;4.832;2023-02-10T02:20:13;103566.19;;;3.15;100.00
69667;BME280;66534;52.370;4.832;2023-02-10T02:25:03;103561.38;;;3.57;100.00
69667;BME280;66534;52.370;4.832;2023-02-10T02:28:35;103571.69;;;3.25;100.00
69667;BME280;66534;52.370;4.832;2023-02-10T02:32:33;103574.00;;;3.16;100.00
69667;BME280;66534;52.370;4.832;2023-02-10T02:33:10;103570.38;;;3.10;100.00
69667;BME280;66534;52.370;4.832;2023-02-10T02:33:51;103574.47;;;3.03;100.00
69667;BME280;66534;52.370;4.832;2023-02-10T02:35:16;103577.84;;;3.00;100.00
69667;BME280;66534;52.370;4.832;2023-02-10T02:35:59;103572.53;;;2.96;100.00
69667;BME280;66534;52.370;4.832;2023-02-10T02:36:35;103580.00;;;3.14;100.00
69667;BME280;66534;52.370;4.832;2023-02-10T02:37:46;103578.41;;;2.90;100.00
69667;BME280;66534;52.370;4.832;2023-02-10T02:38:17;103572.94;;;2.81;100.00
69667;BME280;66534;52.370;4.832;2023-02-10T02:38:48;103576.41;;;2.82;100.00
69667;BME280;66534;52.370;4.832;2023-02-10T02:39:18;103573.31;;;2.93;100.00
69667;BME280;66534;52.370;4.832;2023-02-10T02:39:52;103573.97;;;2.86;100.00
69667;BME280;66534;52.370;4.832;2023-02-10T02:40:25;103578.31;;;2.87;100.00
69667;BME280;66534;52.370;4.832;2023-02-10T02:40:56;103574.66;;;2.81;100.00
69667;BME280;66534;52.370;4.832;2023-02-10T02:41:26;103583.06;;;2.73;100.00
69667;BME280;66534;52.370;4.832;2023-02-10T02:42:16;103582.09;;;2.97;100.00
69667;BME280;66534;52.370;4.832;2023-02-10T02:42:47;103577.22;;;3.08;100.00
69667;BME280;66534;52.370;4.832;2023-02-10T02:43:18;103579.63;;;3.02;100.00
69667;BME280;66534;52.370;4.832;2023-02-10T02:43:49;103579.28;;;2.91;100.00
69667;BME280;66534;52.370;4.832;2023-02-10T02:44:20;103577.66;;;2.94;100.00
69667;BME280;66534;52.370;4.832;2023-02-10T02:44:55;103582.75;;;2.91;100.00
69667;BME280;66534;52.370;4.832;2023-02-10T02:45:27;103577.03;;;3.02;100.00
69667;BME280;66534;52.370;4.832;2023-02-10T02:47:17;103576.56;;;2.86;100.00
69667;BME280;66534;52.370;4.832;2023-02-10T02:48:15;103579.03;;;2.83;100.00
69667;BME280;66534;52.370;4.832;2023-02-10T02:49:09;103575.56;;;2.83;100.00
69667;BME280;66534;52.370;4.832;2023-02-10T02:50:37;103578.75;;;3.01;100.00
69667;BME280;66534;52.370;4.832;2023-02-10T02:51:20;103585.38;;;3.20;100.00
69667;BME280;66534;52.370;4.832;2023-02-10T02:52:05;103582.09;;;2.97;100.00
69667;BME280;66534;52.370;4.832;2023-02-10T02:54:41;103576.31;;;2.79;100.00
69667;BME280;66534;52.370;4.832;2023-02-10T02:55:34;103578.91;;;2.79;100.00
69667;BME280;66534;52.370;4.832;2023-02-10T02:56:39;103568.38;;;2.74;100.00
69667;BME280;66534;52.370;4.832;2023-02-10T02:58:16;103582.66;;;3.17;100.00
69667;BME280;66534;52.370;4.832;2023-02-10T02:59:16;103574.88;;;2.88;100.00
69667;BME280;66534;52.370;4.832;2023-02-10T02:59:51;103579.81;;;3.38;100.00
69667;BME280;66534;52.370;4.832;2023-02-10T03:00:29;103577.78;;;3.26;100.00
69667;BME280;66534;52.370;4.832;2023-02-10T03:01:03;103576.38;;;3.09;100.00
69667;BME280;66534;52.370;4.832;2023-02-10T03:01:45;103566.19;;;2.86;100.00
69667;BME280;66534;52.370;4.832;2023-02-10T03:02:22;103577.91;;;2.75;100.00
69667;BME280;66534;52.370;4.832;2023-02-10T03:02:52;103571.09;;;2.77;100.00
69667;BME280;66534;52.370;4.832;2023-02-10T03:03:23;103572.47;;;2.67;100.00
69667;BME280;66534;52.370;4.832;2023-02-10T03:03:54;103579.44;;;2.68;100.00
69667;BME280;66534;52.370;4.832;2023-02-10T03:04:33;103573.19;;;2.62;100.00
69667;BME280;66534;52.370;4.832;2023-02-10T03:05:05;103574.72;;;2.55;100.00
69667;BME280;66534;52.370;4.832;2023-02-10T03:05:35;103577.38;;;2.58;100.00
69667;BME280;66534;52.370;4.832;2023-02-10T03:06:06;103578.22;;;2.57;100.00
69667;BME280;66534;52.370;4.832;2023-02-10T03:06:36;103577.13;;;2.50;100.00
69667;BME280;66534;52.370;4.832;2023-02-10T03:07:06;103577.63;;;2.66;100.00
69667;BME280;66534;52.370;4.832;2023-02-10T03:07:37;103566.81;;;2.79;100.00
69667;BME280;66534;52.370;4.832;2023-02-10T03:08:07;103573.00;;;2.56;100.00
69667;BME280;66534;52.370;4.832;2023-02-10T03:08:38;103571.06;;;2.50;100.00
69667;BME280;66534;52.370;4.832;2023-02-10T03:09:13;103573.56;;;2.47;100.00
69667;BME280;66534;52.370;4.832;2023-02-10T03:09:44;103579.66;;;2.49;100.00
69667;BME280;66534;52.370;4.832;2023-02-10T03:10:15;103575.22;;;2.45;100.00
69667;BME280;66534;52.370;4.832;2023-02-10T03:10:45;103578.66;;;2.44;100.00
69667;BME280;66534;52.370;4.832;2023-02-10T03:11:16;103576.50;;;2.58;100.00
69667;BME280;66534;52.370;4.832;2023-02-10T03:11:46;103589.56;;;2.61;100.00
69667;BME280;66534;52.370;4.832;2023-02-10T03:12:17;103587.84;;;2.61;100.00
69667;BME280;66534;52.370;4.832;2023-02-10T03:12:47;103585.41;;;2.66;100.00
69667;BME280;66534;52.370;4.832;2023-02-10T03:13:18;103584.09;;;2.52;100.00
69667;BME280;66534;52.370;4.832;2023-02-10T03:13:48;103575.63;;;2.57;100.00
69667;BME280;66534;52.370;4.832;2023-02-10T03:14:19;103579.97;;;2.58;100.00